Time;durP1;ratioP1;P1;durP2;ratioP2;P2;SDS_P1;SDS_P2;PMS_P1;PMS_P2;Temp;Humidity;BMP_temperature;BMP_pressure;BME280_temperature;BME280_humidity;BME280_pressure;Samples;Min_cycle;Max_cycle;Signal;HPM_P1;HPM_P2
2024/01/05 00:01:02;;;;;;;6.37;2.80;;;;;;;;;;5064047;28;20032;-71
2024/01/05 00:03:28;;;;;;;7.47;2.13;;;;;;;;;;5070771;28;20033;-70
2024/01/05 00:05:53;;;;;;;9.27;2.57;;;;;;;;;;5071919;28;20059;-73
2024/01/05 00:08:19;;;;;;;7.77;1.73;;;;;;;;;;5070582;28;20052;-72
2024/01/05 00:10:44;;;;;;;6.57;1.73;;;;;;;;;;5070192;28;20028;-72
2024/01/05 00:13:10;;;;;;;8.03;1.83;;;;;;;;;;5072439;28;20031;-71
2024/01/05 00:15:35;;;;;;;5.50;1.60;;;;;;;;;;5070778;28;20055;-71
2024/01/05 00:18:01;;;;;;;6.20;1.83;;;;;;;;;;5070602;28;20035;-70
2024/01/05 00:20:26;;;;;;;4.10;1.77;;;;;;;;;;5070292;28;20020;-70
2024/01/05 00:22:52;;;;;;;10.80;1.50;;;;;;;;;;5073780;28;20080;-70
2024/01/05 00:25:21;;;;;;;4.23;1.83;;;;;;;;;;5073363;28;20042;-71
2024/01/05 00:27:47;;;;;;;6.50;2.10;;;;;;;;;;5070979;28;20024;-72
2024/01/05 00:30:13;;;;;;;4.37;1.60;;;;;;;;;;5064742;28;20040;-71
2024/01/05 00:32:42;;;;;;;5.37;1.77;;;;;;;;;;5050341;28;20033;-71
2024/01/05 00:35:07;;;;;;;3.90;1.73;;;;;;;;;;5050402;28;20029;-72
2024/01/05 00:37:33;;;;;;;7.20;1.63;;;;;;;;;;5051265;28;20055;-71
2024/01/05 00:39:59;;;;;;;3.97;1.80;;;;;;;;;;5051603;28;20025;-73
2024/01/05 00:42:24;;;;;;;3.87;1.57;;;;;;;;;;5051625;28;20426;-70
2024/01/05 00:44:50;;;;;;;6.63;2.50;;;;;;;;;;5049923;28;20021;-71
2024/01/05 00:47:16;;;;;;;4.83;1.80;;;;;;;;;;5050245;28;20023;-72
2024/01/05 00:49:42;;;;;;;4.57;1.63;;;;;;;;;;5052796;28;20108;-71
2024/01/05 00:52:08;;;;;;;2.33;1.20;;;;;;;;;;5070016;28;20403;-72
2024/01/05 00:54:34;;;;;;;3.90;1.10;;;;;;;;;;5070949;28;20024;-71
2024/01/05 00:57:00;;;;;;;5.80;1.83;;;;;;;;;;5070927;28;20020;-70
2024/01/05 00:59:26;;;;;;;5.87;1.13;;;;;;;;;;5069479;28;20031;-72
2024/01/05 01:01:53;;;;;;;3.07;1.23;;;;;;;;;;5051097;28;20036;-70
2024/01/05 01:04:19;;;;;;;6.33;1.63;;;;;;;;;;5049931;28;20538;-70
2024/01/05 01:06:44;;;;;;;4.63;1.30;;;;;;;;;;5050899;28;20024;-72
2024/01/05 01:09:10;;;;;;;5.80;1.57;;;;;;;;;;5049645;28;20438;-71
2024/01/05 01:11:36;;;;;;;3.53;1.50;;;;;;;;;;5067097;28;20328;-73
2024/01/05 01:14:01;;;;;;;6.00;1.30;;;;;;;;;;5070982;28;20404;-70
2024/01/05 01:16:27;;;;;;;9.00;1.97;;;;;;;;;;5069295;28;20542;-72
2024/01/05 01:18:53;;;;;;;4.20;1.80;;;;;;;;;;5071181;28;20312;-70
2024/01/05 01:21:18;;;;;;;3.10;2.00;;;;;;;;;;5070028;28;20539;-71
2024/01/05 01:23:44;;;;;;;4.00;1.93;;;;;;;;;;5070306;28;20032;-72
2024/01/05 01:26:12;;;;;;;7.40;2.27;;;;;;;;;;5070864;28;20063;-72
2024/01/05 01:28:38;;;;;;;8.43;1.60;;;;;;;;;;5070965;28;20058;-70
2024/01/05 01:31:03;;;;;;;4.27;1.50;;;;;;;;;;5069573;28;20165;-71
2024/01/05 01:33:30;;;;;;;7.50;1.80;;;;;;;;;;5070699;28;20024;-70
2024/01/05 01:35:56;;;;;;;5.03;1.80;;;;;;;;;;5068973;28;20031;-70
2024/01/05 01:38:22;;;;;;;3.90;1.20;;;;;;;;;;5066986;28;20028;-70
2024/01/05 01:40:48;;;;;;;5.37;1.77;;;;;;;;;;5048935;28;20032;-71
2024/01/05 01:43:19;;;;;;;6.50;1.43;;;;;;;;;;5049847;28;20025;-74
2024/01/05 01:45:45;;;;;;;6.13;1.73;;;;;;;;;;5032507;28;20044;-71
2024/01/05 01:48:10;;;;;;;5.43;1.67;;;;;;;;;;5052173;28;20029;-70
2024/01/05 01:50:37;;;;;;;3.50;1.67;;;;;;;;;;5051941;28;20028;-71
2024/01/05 01:53:03;;;;;;;3.67;1.43;;;;;;;;;;5068658;28;20055;-70
2024/01/05 01:55:28;;;;;;;5.73;1.70;;;;;;;;;;5069739;28;20087;-71
2024/01/05 01:57:54;;;;;;;6.20;1.47;;;;;;;;;;5068586;28;20445;-72
2024/01/05 02:00:20;;;;;;;4.20;1.83;;;;;;;;;;5069036;28;20028;-70
2024/01/05 02:02:46;;;;;;;4.20;2.00;;;;;;;;;;5068673;28;20032;-73
2024/01/05 02:05:12;;;;;;;5.53;1.83;;;;;;;;;;5068720;28;20017;-69
2024/01/05 02:07:38;;;;;;;4.63;1.73;;;;;;;;;;5068443;28;20033;-74
2024/01/05 02:10:04;;;;;;;6.70;1.93;;;;;;;;;;5051908;28;20033;-70
2024/01/05 02:12:29;;;;;;;8.40;2.80;;;;;;;;;;5049697;28;20032;-73
2024/01/05 02:14:55;;;;;;;5.67;1.67;;;;;;;;;;5048322;28;20051;-70
2024/01/05 02:17:31;;;;;;;2.87;1.13;;;;;;;;;;5050630;28;20079;-72
2024/01/05 02:19:57;;;;;;;7.97;2.00;;;;;;;;;;5037560;28;20021;-72
2024/01/05 02:22:26;;;;;;;8.50;1.47;;;;;;;;;;5054824;28;20504;-72
2024/01/05 02:24:52;;;;;;;6.70;1.67;;;;;;;;;;5056529;28;20045;-73
2024/01/05 02:27:17;;;;;;;4.30;1.67;;;;;;;;;;5055091;28;20025;-70
2024/01/05 02:29:43;;;;;;;3.80;1.60;;;;;;;;;;5054743;28;20029;-71
2024/01/05 02:32:10;;;;;;;4.20;1.23;;;;;;;;;;5054791;28;20028;-72
2024/01/05 02:34:35;;;;;;;6.30;1.30;;;;;;;;;;5056308;28;20082;-72
2024/01/05 02:37:01;;;;;;;4.37;1.20;;;;;;;;;;5061938;28;20036;-70
2024/01/05 02:39:26;;;;;;;7.27;1.63;;;;;;;;;;5077395;28;20463;-76
2024/01/05 02:41:52;;;;;;;3.80;1.20;;;;;;;;;;5077586;28;20016;-73
2024/01/05 02:44:17;;;;;;;6.87;1.30;;;;;;;;;;5079309;28;20024;-75
2024/01/05 02:46:43;;;;;;;3.50;1.03;;;;;;;;;;5074763;28;20465;-76
2024/01/05 02:49:09;;;;;;;4.40;1.07;;;;;;;;;;5057568;28;20094;-75
2024/01/05 02:51:34;;;;;;;2.57;1.30;;;;;;;;;;5058810;28;20439;-73
2024/01/05 02:54:01;;;;;;;7.47;1.00;;;;;;;;;;5057914;28;20028;-76
2024/01/05 02:56:27;;;;;;;7.40;1.37;;;;;;;;;;5059886;28;20543;-76
2024/01/05 02:58:54;;;;;;;5.13;1.43;;;;;;;;;;5060521;28;20119;-75
2024/01/05 03:01:19;;;;;;;6.90;1.50;;;;;;;;;;5067806;28;20025;-73
2024/01/05 03:03:49;;;;;;;5.33;1.73;;;;;;;;;;5066575;28;20017;-75
2024/01/05 03:06:16;;;;;;;5.07;1.73;;;;;;;;;;5059311;28;20024;-74
2024/01/05 03:08:45;;;;;;;8.67;1.67;;;;;;;;;;5059033;28;20083;-75
2024/01/05 03:11:12;;;;;;;4.43;1.20;;;;;;;;;;5057916;28;20025;-74
2024/01/05 03:13:38;;;;;;;2.53;1.33;;;;;;;;;;5057082;28;20481;-76
2024/01/05 03:16:04;;;;;;;3.80;1.30;;;;;;;;;;5057323;28;20073;-74
2024/01/05 03:18:30;;;;;;;6.00;1.73;;;;;;;;;;5059036;28;20048;-76
2024/01/05 03:20:56;;;;;;;5.47;1.70;;;;;;;;;;5057979;28;20029;-77
2024/01/05 03:23:21;;;;;;;5.87;1.57;;;;;;;;;;5058647;28;20029;-74
2024/01/05 03:25:50;;;;;;;3.97;1.53;;;;;;;;;;5057692;28;20032;-75
2024/01/05 03:28:16;;;;;;;7.33;1.60;;;;;;;;;;5074324;28;20052;-74
2024/01/05 03:30:42;;;;;;;5.33;2.30;;;;;;;;;;5074789;28;20066;-73
2024/01/05 03:33:08;;;;;;;7.83;1.80;;;;;;;;;;5073728;28;20025;-77
2024/01/05 03:35:36;;;;;;;8.93;1.60;;;;;;;;;;5075190;28;20093;-78
2024/01/05 03:38:04;;;;;;;9.47;1.90;;;;;;;;;;5074967;28;20088;-73
2024/01/05 03:40:29;;;;;;;3.97;1.80;;;;;;;;;;5075540;28;20028;-74
2024/01/05 03:42:56;;;;;;;8.70;1.63;;;;;;;;;;5075634;28;20028;-76
2024/01/05 03:45:21;;;;;;;5.03;1.73;;;;;;;;;;5076203;28;20036;-75
2024/01/05 03:47:47;;;;;;;1.97;1.40;;;;;;;;;;5075160;28;20033;-74
2024/01/05 03:50:13;;;;;;;5.40;2.43;;;;;;;;;;5065945;28;20041;-72
2024/01/05 03:52:38;;;;;;;3.97;2.17;;;;;;;;;;5065320;28;20023;-75
2024/01/05 03:55:04;;;;;;;8.60;2.00;;;;;;;;;;5057927;28;20116;-75
2024/01/05 03:57:30;;;;;;;5.53;1.50;;;;;;;;;;5056240;28;20053;-75
2024/01/05 03:59:56;;;;;;;7.53;1.70;;;;;;;;;;5055116;28;20033;-77
2024/01/05 04:02:21;;;;;;;6.47;2.03;;;;;;;;;;5054907;28;20056;-73
2024/01/05 04:04:47;;;;;;;3.57;1.50;;;;;;;;;;5052168;28;20029;-76
2024/01/05 04:07:12;;;;;;;7.97;1.77;;;;;;;;;;5056214;28;20020;-74
2024/01/05 04:09:38;;;;;;;12.57;4.03;;;;;;;;;;5056166;28;20043;-75
2024/01/05 04:12:04;;;;;;;6.27;1.90;;;;;;;;;;5057938;28;20451;-75
2024/01/05 04:14:30;;;;;;;4.47;1.97;;;;;;;;;;5054547;28;20067;-76
2024/01/05 04:16:55;;;;;;;5.93;2.13;;;;;;;;;;5054454;28;20110;-75
2024/01/05 04:19:21;;;;;;;8.20;3.57;;;;;;;;;;5054633;28;20048;-75
2024/01/05 04:21:47;;;;;;;5.73;2.20;;;;;;;;;;5056423;28;20056;-76
2024/01/05 04:24:13;;;;;;;7.27;1.77;;;;;;;;;;5051646;28;20028;-69
2024/01/05 04:26:38;;;;;;;9.83;1.63;;;;;;;;;;5051674;28;20420;-69
2024/01/05 04:29:04;;;;;;;11.30;1.90;;;;;;;;;;5071451;28;20067;-73
2024/01/05 04:31:30;;;;;;;4.20;1.97;;;;;;;;;;5070264;28;20058;-72
2024/01/05 04:33:55;;;;;;;8.50;2.07;;;;;;;;;;5071517;28;20115;-71
2024/01/05 04:36:21;;;;;;;4.87;2.23;;;;;;;;;;5070097;28;20025;-72
2024/01/05 04:38:47;;;;;;;4.07;2.00;;;;;;;;;;5051986;28;20035;-70
2024/01/05 04:41:16;;;;;;;6.87;1.90;;;;;;;;;;5033584;28;20037;-72
2024/01/05 04:43:43;;;;;;;10.20;1.93;;;;;;;;;;5032001;28;20404;-71
2024/01/05 04:46:09;;;;;;;10.13;3.23;;;;;;;;;;5033683;28;20097;-70
2024/01/05 04:48:34;;;;;;;4.07;2.07;;;;;;;;;;5049908;28;20123;-72
2024/01/05 04:51:02;;;;;;;6.00;1.63;;;;;;;;;;5049990;28;20504;-71
2024/01/05 04:53:28;;;;;;;5.60;1.80;;;;;;;;;;5051263;28;20029;-71
2024/01/05 04:55:53;;;;;;;6.53;2.20;;;;;;;;;;5049828;28;20025;-71
2024/01/05 04:58:19;;;;;;;6.53;2.57;;;;;;;;;;5062952;28;20051;-71
2024/01/05 05:00:45;;;;;;;5.70;2.30;;;;;;;;;;5069452;28;20165;-71
2024/01/05 05:03:11;;;;;;;3.67;1.90;;;;;;;;;;5071094;28;20024;-71
2024/01/05 05:05:40;;;;;;;7.07;2.37;;;;;;;;;;5069481;28;20108;-72
2024/01/05 05:08:10;;;;;;;3.87;1.87;;;;;;;;;;5058451;28;20032;-70
2024/01/05 05:10:37;;;;;;;5.43;2.07;;;;;;;;;;5049491;28;20035;-72
2024/01/05 05:13:05;;;;;;;10.10;3.27;;;;;;;;;;5049527;28;20020;-71
2024/01/05 05:15:31;;;;;;;14.47;3.10;;;;;;;;;;5048995;28;20060;-70
2024/01/05 05:17:57;;;;;;;13.37;2.53;;;;;;;;;;5049753;28;20033;-70
2024/01/05 05:20:22;;;;;;;6.07;2.13;;;;;;;;;;5049443;28;20032;-71
2024/01/05 05:22:48;;;;;;;7.60;1.80;;;;;;;;;;5049356;28;20155;-71
2024/01/05 05:25:14;;;;;;;3.87;2.00;;;;;;;;;;5049815;28;20505;-69
2024/01/05 05:27:40;;;;;;;10.77;2.77;;;;;;;;;;5056565;28;20093;-73
2024/01/05 05:30:08;;;;;;;8.60;2.30;;;;;;;;;;5070923;28;20098;-72
2024/01/05 05:32:33;;;;;;;3.73;1.80;;;;;;;;;;5069158;28;20024;-73
2024/01/05 05:34:59;;;;;;;10.77;3.60;;;;;;;;;;5069029;28;20017;-71
2024/01/05 05:37:24;;;;;;;7.53;2.40;;;;;;;;;;5063909;28;20028;-70
2024/01/05 05:39:52;;;;;;;7.87;2.07;;;;;;;;;;5048900;28;20024;-73
2024/01/05 05:42:17;;;;;;;6.73;3.23;;;;;;;;;;5048992;28;20063;-71
2024/01/05 05:44:44;;;;;;;5.60;2.67;;;;;;;;;;5050138;28;20117;-72
2024/01/05 05:47:10;;;;;;;8.33;2.67;;;;;;;;;;5052527;28;20025;-70
2024/01/05 05:49:36;;;;;;;7.80;2.53;;;;;;;;;;5070014;28;20078;-76
2024/01/05 05:52:02;;;;;;;5.13;1.83;;;;;;;;;;5069361;28;20484;-73
2024/01/05 05:54:28;;;;;;;8.57;2.20;;;;;;;;;;5069632;28;20028;-72
2024/01/05 05:56:54;;;;;;;7.23;1.90;;;;;;;;;;5068890;28;20028;-72
2024/01/05 05:59:20;;;;;;;4.93;1.80;;;;;;;;;;5070113;28;20040;-71
2024/01/05 06:01:46;;;;;;;10.97;2.10;;;;;;;;;;5068471;28;20254;-72
2024/01/05 06:04:13;;;;;;;3.80;1.90;;;;;;;;;;5050880;28;20035;-70
2024/01/05 06:06:39;;;;;;;6.13;1.90;;;;;;;;;;5051742;28;20036;-73
2024/01/05 06:09:07;;;;;;;5.37;2.07;;;;;;;;;;5052842;28;20079;-72
2024/01/05 06:11:35;;;;;;;5.17;2.37;;;;;;;;;;5052808;28;20016;-73
2024/01/05 06:14:04;;;;;;;8.20;2.17;;;;;;;;;;5067679;28;20120;-72
2024/01/05 06:16:29;;;;;;;4.47;1.93;;;;;;;;;;5068464;28;20035;-73
2024/01/05 06:18:55;;;;;;;9.77;2.70;;;;;;;;;;5042240;28;20032;-72
2024/01/05 06:21:20;;;;;;;7.23;2.00;;;;;;;;;;5069837;28;20039;-69
2024/01/05 06:23:47;;;;;;;11.93;1.67;;;;;;;;;;5060134;28;20488;-72
2024/01/05 06:26:13;;;;;;;17.00;5.67;;;;;;;;;;5070748;28;20078;-74
2024/01/05 06:28:39;;;;;;;5.40;2.10;;;;;;;;;;5068529;28;20035;-77
2024/01/05 06:31:06;;;;;;;6.67;1.60;;;;;;;;;;5061569;28;20040;-74
2024/01/05 06:33:33;;;;;;;7.37;2.37;;;;;;;;;;5063816;28;20169;-74
2024/01/05 06:36:00;;;;;;;6.60;1.73;;;;;;;;;;5081093;28;20039;-74
2024/01/05 06:38:26;;;;;;;7.93;2.97;;;;;;;;;;5067344;28;20024;-75
2024/01/05 06:40:52;;;;;;;9.47;2.97;;;;;;;;;;5072766;28;20040;-74
2024/01/05 06:43:18;;;;;;;7.77;2.30;;;;;;;;;;5079026;28;20036;-76
2024/01/05 06:45:44;;;;;;;11.10;2.27;;;;;;;;;;5071312;28;20021;-74
2024/01/05 06:48:10;;;;;;;5.07;2.67;;;;;;;;;;5071290;28;20036;-74
2024/01/05 06:52:07;;;;;;;9.60;2.43;;;;;;;;;;4975145;27;2671570;-73
2024/01/05 06:54:34;;;;;;;10.17;2.70;;;;;;;;;;5066673;28;20107;-73
2024/01/05 06:57:00;;;;;;;6.10;2.93;;;;;;;;;;5061519;28;20029;-75
2024/01/05 06:59:30;;;;;;;5.00;2.27;;;;;;;;;;5063204;28;20032;-75
2024/01/05 07:02:05;;;;;;;10.53;2.63;;;;;;;;;;5061693;28;20033;-75
2024/01/05 07:04:34;;;;;;;11.17;2.87;;;;;;;;;;5055701;28;20051;-74
2024/01/05 07:06:59;;;;;;;5.70;2.30;;;;;;;;;;5059098;28;20036;-76
2024/01/05 07:09:25;;;;;;;8.00;2.33;;;;;;;;;;5068306;28;20025;-74
2024/01/05 07:11:52;;;;;;;6.00;2.27;;;;;;;;;;5075646;28;20041;-73
2024/01/05 07:14:18;;;;;;;10.00;3.07;;;;;;;;;;5063693;28;20025;-71
2024/01/05 07:16:44;;;;;;;10.90;2.93;;;;;;;;;;5054932;28;20042;-76
2024/01/05 07:19:10;;;;;;;10.33;2.97;;;;;;;;;;5044751;28;20057;-70
2024/01/05 07:21:40;;;;;;;9.20;3.50;;;;;;;;;;5057300;28;20057;-77
2024/01/05 07:24:09;;;;;;;10.90;3.53;;;;;;;;;;5056590;28;20036;-77
2024/01/05 07:26:38;;;;;;;11.53;3.80;;;;;;;;;;5050132;28;20128;-80
2024/01/05 07:29:03;;;;;;;9.27;3.07;;;;;;;;;;5058000;28;20098;-75
2024/01/05 07:31:29;;;;;;;12.77;3.67;;;;;;;;;;5065360;28;20020;-70
2024/01/05 07:33:58;;;;;;;7.77;3.90;;;;;;;;;;5047835;28;20552;-78
2024/01/05 07:36:24;;;;;;;9.90;4.07;;;;;;;;;;5074868;28;20521;-77
2024/01/05 07:38:51;;;;;;;9.80;3.00;;;;;;;;;;5065445;28;20039;-77
2024/01/05 07:41:23;;;;;;;5.63;2.83;;;;;;;;;;5079952;28;20029;-76
2024/01/05 07:43:49;;;;;;;9.13;3.30;;;;;;;;;;5061514;28;20052;-74
2024/01/05 07:46:17;;;;;;;8.67;3.40;;;;;;;;;;5068238;28;20045;-78
2024/01/05 07:48:43;;;;;;;11.57;3.53;;;;;;;;;;5062178;28;20028;-78
2024/01/05 07:51:10;;;;;;;17.67;4.40;;;;;;;;;;5049266;28;20044;-77
2024/01/05 07:53:38;;;;;;;11.87;3.93;;;;;;;;;;5058510;28;20025;-79
2024/01/05 07:56:07;;;;;;;14.63;5.40;;;;;;;;;;5049998;28;20047;-76
2024/01/05 07:58:33;;;;;;;6.37;3.67;;;;;;;;;;5053344;28;20036;-75
2024/01/05 08:00:59;;;;;;;12.03;4.00;;;;;;;;;;5049566;28;20264;-74
2024/01/05 08:03:25;;;;;;;9.03;3.40;;;;;;;;;;5040285;28;20358;-78
2024/01/05 08:05:51;;;;;;;8.33;4.00;;;;;;;;;;5044955;28;20032;-74
2024/01/05 08:08:17;;;;;;;9.70;3.17;;;;;;;;;;5035268;28;20405;-77
2024/01/05 08:10:43;;;;;;;12.30;3.03;;;;;;;;;;5035436;28;20065;-76
2024/01/05 08:13:09;;;;;;;11.80;3.67;;;;;;;;;;5048925;28;20029;-73
2024/01/05 08:15:35;;;;;;;10.53;3.63;;;;;;;;;;5035542;28;20423;-72
2024/01/05 08:18:03;;;;;;;7.07;3.07;;;;;;;;;;5031973;28;20048;-75
2024/01/05 08:20:29;;;;;;;7.07;3.27;;;;;;;;;;5039332;28;20493;-72
2024/01/05 08:22:55;;;;;;;11.27;3.43;;;;;;;;;;5042925;28;20412;-72
2024/01/05 08:25:22;;;;;;;14.63;3.27;;;;;;;;;;5040996;28;20115;-73
2024/01/05 08:27:48;;;;;;;12.07;3.30;;;;;;;;;;5037209;28;20087;-75
2024/01/05 08:30:14;;;;;;;11.43;3.73;;;;;;;;;;5039603;28;20021;-73
2024/01/05 08:32:42;;;;;;;10.00;3.77;;;;;;;;;;5040462;28;20592;-76
2024/01/05 08:35:08;;;;;;;7.27;2.73;;;;;;;;;;5037185;28;20028;-74
2024/01/05 08:37:34;;;;;;;5.33;2.50;;;;;;;;;;5037139;28;20029;-73
2024/01/05 08:40:04;;;;;;;13.90;2.97;;;;;;;;;;5041185;28;20376;-76
2024/01/05 08:42:30;;;;;;;9.87;3.47;;;;;;;;;;5036898;28;20087;-75
2024/01/05 08:44:56;;;;;;;12.63;2.97;;;;;;;;;;5042722;28;20033;-74
2024/01/05 08:47:22;;;;;;;11.50;3.23;;;;;;;;;;5034508;28;20429;-77
2024/01/05 08:49:48;;;;;;;6.77;2.40;;;;;;;;;;5044056;28;20475;-74
2024/01/05 08:52:14;;;;;;;8.27;3.20;;;;;;;;;;5042228;28;20401;-74
2024/01/05 08:54:40;;;;;;;6.67;3.07;;;;;;;;;;5043601;28;20031;-76
2024/01/05 08:57:10;;;;;;;10.57;3.33;;;;;;;;;;5039345;28;20524;-73
2024/01/05 08:59:38;;;;;;;8.27;4.00;;;;;;;;;;5031406;28;20036;-77
2024/01/05 09:02:03;;;;;;;11.43;4.10;;;;;;;;;;5059263;28;20031;-71
2024/01/05 09:04:35;;;;;;;11.73;3.40;;;;;;;;;;5040012;28;20391;-71
2024/01/05 09:07:02;;;;;;;6.57;3.25;;;;;;;;;;5038345;28;20037;-75
2024/01/05 09:09:27;;;;;;;8.80;3.63;;;;;;;;;;5021754;28;20043;-77
2024/01/05 09:11:53;;;;;;;12.93;4.93;;;;;;;;;;5034418;28;20338;-74
2024/01/05 09:14:21;;;;;;;9.10;3.70;;;;;;;;;;5026057;28;20045;-74
2024/01/05 09:16:52;;;;;;;13.17;5.10;;;;;;;;;;5034850;28;20657;-74
2024/01/05 09:19:20;;;;;;;13.20;3.87;;;;;;;;;;5041055;28;20492;-72
2024/01/05 09:21:45;;;;;;;10.17;3.57;;;;;;;;;;5029074;28;20090;-73
2024/01/05 09:24:14;;;;;;;9.83;3.70;;;;;;;;;;5038500;28;20029;-76
2024/01/05 09:26:43;;;;;;;12.37;3.67;;;;;;;;;;5043774;28;20021;-75
2024/01/05 09:29:10;;;;;;;10.70;3.47;;;;;;;;;;5038368;28;20043;-77
2024/01/05 09:31:37;;;;;;;10.13;4.10;;;;;;;;;;5026483;28;20032;-76
2024/01/05 09:34:03;;;;;;;7.17;3.67;;;;;;;;;;5035776;28;20484;-73
2024/01/05 09:36:30;;;;;;;12.77;3.73;;;;;;;;;;5036230;28;20099;-75
2024/01/05 09:38:55;;;;;;;6.83;3.40;;;;;;;;;;5056582;28;20040;-74
2024/01/05 09:41:22;;;;;;;12.70;7.20;;;;;;;;;;5045423;28;20017;-76
2024/01/05 09:43:48;;;;;;;6.43;4.10;;;;;;;;;;5031684;28;20021;-75
2024/01/05 09:46:16;;;;;;;6.73;3.70;;;;;;;;;;5036597;28;20032;-75
2024/01/05 09:48:42;;;;;;;14.90;3.13;;;;;;;;;;5032936;28;20556;-75
2024/01/05 09:51:09;;;;;;;6.30;3.23;;;;;;;;;;5043317;28;20049;-76
2024/01/05 09:53:35;;;;;;;8.00;2.97;;;;;;;;;;5032021;28;20047;-76
2024/01/05 09:56:02;;;;;;;8.10;4.17;;;;;;;;;;5036878;28;20032;-76
2024/01/05 09:58:30;;;;;;;9.40;3.17;;;;;;;;;;5051644;28;20129;-76
2024/01/05 10:01:04;;;;;;;9.53;2.97;;;;;;;;;;5034123;28;20029;-75
2024/01/05 10:03:30;;;;;;;9.77;2.90;;;;;;;;;;5036835;28;20499;-75
2024/01/05 10:05:58;;;;;;;8.93;2.60;;;;;;;;;;5036224;28;20033;-75
2024/01/05 10:08:25;;;;;;;13.17;3.43;;;;;;;;;;5041701;28;20448;-74
2024/01/05 10:11:00;;;;;;;6.80;3.60;;;;;;;;;;5024987;28;20041;-77
2024/01/05 10:13:26;;;;;;;7.73;3.57;;;;;;;;;;5035772;28;20036;-75
2024/01/05 10:15:55;;;;;;;10.53;3.77;;;;;;;;;;5032806;28;20033;-74
2024/01/05 10:18:23;;;;;;;11.00;3.37;;;;;;;;;;5039388;28;20125;-78
2024/01/05 10:20:52;;;;;;;12.73;3.63;;;;;;;;;;5026100;28;20382;-74
2024/01/05 10:23:21;;;;;;;11.60;3.30;;;;;;;;;;5036871;28;20021;-77
2024/01/05 10:25:47;;;;;;;6.93;3.03;;;;;;;;;;5046482;28;20048;-75
2024/01/05 10:28:26;;;;;;;11.77;3.63;;;;;;;;;;5066917;28;20089;-75
2024/01/05 10:30:52;;;;;;;8.17;2.80;;;;;;;;;;5041595;28;20075;-75
2024/01/05 10:33:19;;;;;;;8.48;3.13;;;;;;;;;;5052659;28;20025;-77
2024/01/05 10:35:48;;;;;;;12.97;5.37;;;;;;;;;;5037993;28;20090;-76
2024/01/05 10:38:14;;;;;;;11.43;3.77;;;;;;;;;;5039336;28;20100;-77
2024/01/05 10:40:41;;;;;;;17.37;3.43;;;;;;;;;;5037115;28;20858;-76
2024/01/05 10:43:14;;;;;;;6.90;3.57;;;;;;;;;;5036707;28;20036;-76
2024/01/05 10:45:41;;;;;;;7.35;3.22;;;;;;;;;;5021857;28;20392;-78
2024/01/05 10:48:13;;;;;;;7.82;2.80;;;;;;;;;;5040207;28;20029;-74
2024/01/05 10:50:43;;;;;;;9.18;3.35;;;;;;;;;;5040303;28;20060;-75
2024/01/05 10:53:09;;;;;;;5.85;2.85;;;;;;;;;;5038248;28;20046;-74
2024/01/05 10:55:37;;;;;;;5.73;2.53;;;;;;;;;;5046080;28;20044;-74
2024/01/05 10:58:07;;;;;;;9.85;2.55;;;;;;;;;;5043499;28;20029;-75
2024/01/05 11:00:33;;;;;;;5.72;2.38;;;;;;;;;;5042951;28;20092;-75
2024/01/05 11:03:09;;;;;;;6.45;2.80;;;;;;;;;;5044899;28;20080;-75
2024/01/05 11:05:36;;;;;;;9.57;2.63;;;;;;;;;;5039541;28;20036;-73
2024/01/05 11:08:05;;;;;;;6.00;3.22;;;;;;;;;;5036527;28;20026;-76
2024/01/05 11:10:50;;;;;;;8.10;3.13;;;;;;;;;;5037316;28;20116;-77
2024/01/05 11:13:40;;;;;;;10.18;3.72;;;;;;;;;;5032693;28;20052;-76
2024/01/05 11:16:42;;;;;;;8.13;4.32;;;;;;;;;;5039784;28;20039;-77
2024/01/05 11:19:09;;;;;;;12.20;6.70;;;;;;;;;;5047372;28;20076;-76
2024/01/05 11:21:54;;;;;;;9.00;3.93;;;;;;;;;;5046732;28;20025;-74
2024/01/05 11:24:22;;;;;;;6.88;4.03;;;;;;;;;;5052706;28;20093;-75
2024/01/05 11:26:48;;;;;;;12.55;4.68;;;;;;;;;;5056434;28;20033;-76
2024/01/05 11:29:46;;;;;;;11.35;4.65;;;;;;;;;;5048166;28;20040;-75
2024/01/05 11:32:36;;;;;;;12.30;4.78;;;;;;;;;;5041981;28;20037;-76
2024/01/05 11:35:02;;;;;;;8.98;4.22;;;;;;;;;;5045050;28;20120;-73
2024/01/05 11:37:30;;;;;;;11.55;3.97;;;;;;;;;;5045636;28;20048;-74
2024/01/05 11:39:59;;;;;;;9.03;4.37;;;;;;;;;;5052811;28;20058;-72
2024/01/05 11:42:27;;;;;;;13.88;4.40;;;;;;;;;;5037428;28;20037;-73
2024/01/05 11:44:57;;;;;;;10.90;4.35;;;;;;;;;;5038484;28;20628;-71
2024/01/05 11:47:45;;;;;;;9.05;3.60;;;;;;;;;;5035389;28;20041;-74
2024/01/05 11:50:39;;;;;;;7.13;3.78;;;;;;;;;;5038059;28;20033;-73
2024/01/05 11:53:16;;;;;;;7.63;3.92;;;;;;;;;;5033494;28;20072;-75
2024/01/05 11:55:48;;;;;;;15.73;8.00;;;;;;;;;;5042005;28;20063;-74
2024/01/05 11:58:46;;;;;;;15.77;4.28;;;;;;;;;;5042933;28;20056;-75
2024/01/05 12:01:13;;;;;;;12.02;4.28;;;;;;;;;;5043604;28;20025;-76
2024/01/05 12:03:43;;;;;;;12.82;5.00;;;;;;;;;;5040076;28;20051;-78
2024/01/05 12:06:13;;;;;;;8.80;4.60;;;;;;;;;;5040593;28;20041;-75
2024/01/05 12:08:40;;;;;;;10.52;4.45;;;;;;;;;;5039512;28;20060;-72
2024/01/05 12:11:10;;;;;;;12.02;5.32;;;;;;;;;;5038833;28;20024;-79
2024/01/05 12:13:37;;;;;;;8.13;4.25;;;;;;;;;;5032652;28;20045;-76
2024/01/05 12:16:04;;;;;;;13.93;5.07;;;;;;;;;;5036692;28;20072;-75
2024/01/05 12:18:41;;;;;;;9.32;4.70;;;;;;;;;;5043894;28;20048;-76
2024/01/05 12:21:11;;;;;;;13.43;8.05;;;;;;;;;;5041062;28;20576;-76
2024/01/05 12:23:37;;;;;;;11.50;5.40;;;;;;;;;;5028287;28;20043;-76
2024/01/05 12:26:10;;;;;;;13.57;4.72;;;;;;;;;;5040630;28;20055;-74
2024/01/05 12:28:38;;;;;;;11.35;4.47;;;;;;;;;;5048062;28;20508;-75
2024/01/05 12:31:05;;;;;;;17.92;7.20;;;;;;;;;;5037816;28;20029;-75
2024/01/05 12:33:34;;;;;;;11.80;5.28;;;;;;;;;;5042152;28;20075;-74
2024/01/05 12:36:01;;;;;;;9.73;4.38;;;;;;;;;;5039663;28;20064;-75
2024/01/05 12:38:29;;;;;;;14.77;4.68;;;;;;;;;;5042294;28;20024;-72
2024/01/05 12:41:24;;;;;;;12.35;3.92;;;;;;;;;;5041848;28;20032;-78
2024/01/05 12:43:51;;;;;;;16.67;4.72;;;;;;;;;;5020750;28;20033;-77
2024/01/05 12:46:20;;;;;;;11.90;5.13;;;;;;;;;;5040905;28;20031;-75
2024/01/05 12:48:45;;;;;;;8.93;4.38;;;;;;;;;;5038944;28;20028;-77
2024/01/05 12:51:20;;;;;;;17.02;7.82;;;;;;;;;;5035905;28;20148;-73
2024/01/05 12:54:02;;;;;;;9.85;5.60;;;;;;;;;;5035261;28;20033;-76
2024/01/05 12:56:28;;;;;;;13.02;4.60;;;;;;;;;;5038484;28;20444;-75
2024/01/05 12:58:54;;;;;;;11.82;5.53;;;;;;;;;;5045150;28;20061;-77
2024/01/05 13:01:21;;;;;;;15.57;4.72;;;;;;;;;;5039403;28;20021;-77
2024/01/05 13:03:59;;;;;;;11.88;4.82;;;;;;;;;;5041993;28;20532;-71
2024/01/05 13:06:29;;;;;;;20.77;7.90;;;;;;;;;;5041451;28;20064;-75
2024/01/05 13:08:59;;;;;;;8.45;4.05;;;;;;;;;;5041650;28;20106;-77
2024/01/05 13:11:26;;;;;;;11.50;5.25;;;;;;;;;;5047480;28;20025;-76
2024/01/05 13:13:52;;;;;;;14.68;7.40;;;;;;;;;;5037718;28;20039;-75
2024/01/05 13:16:19;;;;;;;10.30;5.50;;;;;;;;;;5028206;28;20500;-72
2024/01/05 13:18:45;;;;;;;12.80;4.20;;;;;;;;;;5044736;28;20025;-76
2024/01/05 13:21:10;;;;;;;11.85;4.68;;;;;;;;;;5041662;28;20017;-75
2024/01/05 13:23:40;;;;;;;9.93;4.72;;;;;;;;;;5040985;28;20017;-77
2024/01/05 13:26:06;;;;;;;12.68;4.38;;;;;;;;;;5042687;28;20470;-74
2024/01/05 13:28:36;;;;;;;10.88;4.75;;;;;;;;;;5041580;28;20021;-76
2024/01/05 13:31:03;;;;;;;9.85;5.07;;;;;;;;;;5044697;28;20120;-73
2024/01/05 13:33:31;;;;;;;10.52;5.35;;;;;;;;;;5034272;28;20166;-75
2024/01/05 13:35:58;;;;;;;11.70;5.78;;;;;;;;;;5040183;28;20040;-77
2024/01/05 13:38:24;;;;;;;13.35;5.00;;;;;;;;;;5038763;28;20064;-76
2024/01/05 13:40:49;;;;;;;13.98;6.07;;;;;;;;;;5039357;28;20322;-77
2024/01/05 13:43:17;;;;;;;13.85;5.93;;;;;;;;;;5045842;28;20137;-75
2024/01/05 13:45:45;;;;;;;13.05;5.38;;;;;;;;;;5052654;28;20040;-76
2024/01/05 13:48:11;;;;;;;11.68;5.53;;;;;;;;;;5049786;28;20037;-77
2024/01/05 13:50:38;;;;;;;11.77;5.15;;;;;;;;;;5049274;28;20053;-74
2024/01/05 13:53:10;;;;;;;11.95;5.90;;;;;;;;;;5061957;28;20038;-74
2024/01/05 13:55:37;;;;;;;14.65;5.78;;;;;;;;;;5040013;28;20057;-73
2024/01/05 13:58:06;;;;;;;14.90;6.07;;;;;;;;;;5041445;28;20141;-75
2024/01/05 14:00:34;;;;;;;11.98;4.88;;;;;;;;;;5053134;28;20061;-77
2024/01/05 14:03:00;;;;;;;10.73;5.38;;;;;;;;;;5036748;28;20048;-76
2024/01/05 14:05:25;;;;;;;13.60;5.82;;;;;;;;;;5037753;28;20040;-78
2024/01/05 14:07:53;;;;;;;10.35;4.72;;;;;;;;;;5048748;28;20040;-71
2024/01/05 14:10:20;;;;;;;12.95;5.40;;;;;;;;;;5050979;28;20581;-77
2024/01/05 14:12:45;;;;;;;12.07;6.30;;;;;;;;;;5036591;28;20381;-74
2024/01/05 14:15:13;;;;;;;12.15;5.72;;;;;;;;;;5036998;28;20051;-76
2024/01/05 14:17:43;;;;;;;17.63;5.85;;;;;;;;;;5036315;28;20246;-77
2024/01/05 14:20:09;;;;;;;8.38;4.63;;;;;;;;;;5037945;28;20021;-76
2024/01/05 14:22:35;;;;;;;14.18;4.63;;;;;;;;;;5034909;28;20029;-71
2024/01/05 14:25:01;;;;;;;14.80;5.75;;;;;;;;;;5033397;28;20252;-72
2024/01/05 14:27:26;;;;;;;11.85;5.18;;;;;;;;;;5040978;28;20108;-76
2024/01/05 14:29:54;;;;;;;10.60;4.93;;;;;;;;;;5042127;28;20037;-75
2024/01/05 14:32:20;;;;;;;22.08;5.50;;;;;;;;;;5041436;28;20188;-76
2024/01/05 14:34:46;;;;;;;17.27;6.70;;;;;;;;;;5035812;28;20293;-76
2024/01/05 14:37:13;;;;;;;16.45;5.47;;;;;;;;;;5034306;28;20021;-73
2024/01/05 14:39:38;;;;;;;7.30;4.35;;;;;;;;;;5035130;28;20119;-75
2024/01/05 14:42:05;;;;;;;11.85;4.75;;;;;;;;;;5039532;28;20119;-74